Sunday, August 25, 2019, 5:13 AM EDT
Back to Local

KEEN, Keene, Dillant-hopkins Airport

Location: Keene, NH, United States Lat: 42.9
Local Time: 5:13 AM EDT ( 9:13 GMT) Lon: -72.267
Time Zone: US/Eastern Elev: 488 ft

Show me the last for .
Show Decoded

2019-08-25 04:56 METAR KEEN 250856Z AUTO 00000KT 10SM BKN031 BKN039 12/11 A3033 RMK AO2 SLP275
                 T01170111 53003 $ =
2019-08-25 03:56 METAR KEEN 250756Z AUTO 00000KT 10SM SCT032 BKN040 12/12 A3033 RMK AO2 SLP273
                 T01170117 $ =
2019-08-25 03:16 METAR KEEN 250716Z AUTO 00000KT 4SM BR BKN035 12/11 A3032 RMK AO2 $ =
2019-08-25 03:14 METAR KEEN 250714Z AUTO 00000KT 1 1/2SM BR BKN035 12/11 A3032 RMK AO2 $ =
2019-08-25 03:04 METAR KEEN 250704Z AUTO 00000KT 3/4SM BR FEW033 11/11 A3032 RMK AO2 $ =
2019-08-25 03:01 METAR KEEN 250701Z AUTO 00000KT 1 3/4SM BR CLR 11/11 A3032 RMK AO2 VIS 1/2V5 $ =
2019-08-25 02:56 METAR KEEN 250656Z AUTO 00000KT 4SM BR CLR 11/11 A3032 RMK AO2 SLP270 T01110111
                 $ =
2019-08-25 02:50 METAR KEEN 250650Z AUTO 00000KT 4SM BR CLR 12/12 A3032 RMK AO2 $ =
2019-08-25 02:28 METAR KEEN 250628Z AUTO 00000KT 1 3/4SM BR CLR 12/12 A3032 RMK AO2 VIS 3/4V5 $ =
2019-08-25 01:56 METAR KEEN 250556Z AUTO 00000KT 10SM FEW030 12/12 A3032 RMK AO2 SLP271 T01220122
                 10194 20122 50003 $ =
2019-08-25 00:56 METAR KEEN 250456Z AUTO 00000KT 10SM CLR 13/12 A3032 RMK AO2 SLP272 T01280122
                 402330078 $ =
2019-08-24 23:56 METAR KEEN 250356Z AUTO 00000KT 10SM BKN070 14/13 A3032 RMK AO2 SLP272 T01440133
                 $ =
2019-08-24 22:56 METAR KEEN 250256Z AUTO 00000KT 10SM OVC050 17/14 A3031 RMK AO2 SLP269 T01720139
                 51023 $ =
2019-08-24 21:56 METAR KEEN 250156Z AUTO 00000KT 10SM BKN042 OVC050 18/14 A3030 RMK AO2 SLP263
                 T01830139 $ =
2019-08-24 20:56 METAR KEEN 250056Z AUTO 00000KT 8SM BKN039 OVC049 19/15 A3027 RMK AO2 SLP255
                 T01890150 $ =
2019-08-24 19:56 METAR KEEN 242356Z AUTO 00000KT 10SM OVC043 19/15 A3024 RMK AO2 SLP245 T01890150
                 10233 20189 53016 $ =
2019-08-24 18:56 METAR KEEN 242256Z AUTO 05003KT 10SM OVC047 21/14 A3023 RMK AO2 SLP239 T02110144
                 $ =
2019-08-24 17:56 METAR KEEN 242156Z AUTO 35008KT 10SM BKN047 BKN060 OVC075 22/13 A3021 RMK AO2
                 SLP234 T02220133 $ =
2019-08-24 16:56 METAR KEEN 242056Z AUTO 35009KT 10SM SCT049 BKN070 23/13 A3019 RMK AO2 SLP229
                 T02280128 53004 $ =
2019-08-24 15:56 METAR KEEN 241956Z AUTO 36010KT 9SM BKN055 BKN070 23/12 A3019 RMK AO2 SLP227
                 T02330122 $ =
2019-08-24 14:56 METAR KEEN 241856Z AUTO 34008KT 9SM BKN047 BKN065 23/12 A3019 RMK AO2 SLP227
                 T02280122 $ =
2019-08-24 13:56 METAR KEEN 241756Z AUTO 35005KT 10SM BKN050 OVC060 22/12 A3018 RMK AO2 SLP225
                 T02170122 10222 20094 55000 $ =
2019-08-24 12:56 METAR KEEN 241656Z AUTO 33008G16KT 10SM BKN050 21/12 A3018 RMK AO2 SLP223
                 T02110117 $ =
2019-08-24 11:56 METAR KEEN 241556Z AUTO 34009KT 10SM BKN046 21/12 A3018 RMK AO2 SLP226 T02110117
                 $ =
2019-08-24 10:56 METAR KEEN 241456Z AUTO 32007KT 10SM SCT044 19/12 A3018 RMK AO2 SLP226 T01890117
                 58002 $ =
2019-08-24 09:56 METAR KEEN 241356Z AUTO 33007KT 10SM CLR 17/11 A3019 RMK AO2 SLP228 T01670111 $
                 =
2019-08-24 08:56 METAR KEEN 241256Z AUTO VRB03KT 10SM CLR 13/11 A3019 RMK AO2 SLP228 T01280106 $
                 =
2019-08-24 08:40 METAR KEEN 241240Z AUTO 20005KT 10SM SCT001 12/11 A3019 RMK AO2 $ =
2019-08-24 08:16 METAR KEEN 241216Z AUTO 23003KT 3SM BR OVC001 10/10 A3019 RMK AO2 $ =
2019-08-24 08:09 METAR KEEN 241209Z AUTO 00000KT 1 1/4SM BR OVC001 09/09 A3019 RMK AO2 VIS 1/2V3
                 $ =
2019-08-24 08:07 METAR KEEN 241207Z AUTO 00000KT 3/4SM BR OVC001 09/09 A3019 RMK AO2 $ =
2019-08-24 07:56 METAR KEEN 241156Z AUTO 22003KT 1/4SM FG OVC001 09/09 A3019 RMK AO2 SLP228
                 T00940094 10100 20078 51013 $ =
2019-08-24 07:54 METAR KEEN 241154Z AUTO 22004KT 1/4SM FG OVC001 09/09 A3019 RMK AO2 $ =
2019-08-24 07:39 METAR KEEN 241139Z AUTO 00000KT 1/2SM FG OVC001 09/09 A3019 RMK AO2 $ =
2019-08-24 06:56 METAR KEEN 241056Z AUTO 00000KT 1/4SM FG OVC001 08/08 A3018 RMK AO2 SLP221
                 T00830083 $ =
2019-08-24 06:09 METAR KEEN 241009Z AUTO 00000KT 1/4SM FG OVC001 08/08 A3016 RMK AO2 CIG 001V004
                 $ =
2019-08-24 06:00 METAR KEEN 241000Z AUTO 22003KT 1/2SM FG OVC001 08/08 A3015 RMK AO2 VIS 1/4V5 $
                 =
2019-08-24 05:51 METAR KEEN 240951Z AUTO 00000KT 1SM BR OVC001 08/08 A3015 RMK AO2 SLP214
                 T00830083 $ =
2019-08-24 05:50 METAR KEEN 240950Z AUTO 20003KT 1SM BR OVC001 08/08 A3015 RMK AO2 $ =
2019-08-24 05:40 METAR KEEN 240940Z AUTO 00000KT 1/2SM FG OVC001 08/08 A3015 RMK AO2 $ =
2019-08-24 05:29 METAR KEEN 240929Z AUTO 00000KT 1SM BR OVC001 08/08 A3014 RMK AO2 $ =
2019-08-24 05:18 METAR KEEN 240918Z AUTO 00000KT 1/2SM FG OVC001 08/08 A3014 RMK AO2 $ =

Support USWX by starting your Amazon purchase here.